Time;durP1;ratioP1;P1;durP2;ratioP2;P2;SDS_P1;SDS_P2;PMS_P1;PMS_P2;Temp;Humidity;BMP_temperature;BMP_pressure;BME280_temperature;BME280_humidity;BME280_pressure;Samples;Min_cycle;Max_cycle;Signal;HPM_P1;HPM_P2
2021/03/09 00:00:55;;;;;;;;;;;22.90;32.20;;;;;;1545230;75;760;-64
2021/03/09 00:02:57;;;;;;;;;;;22.90;32.20;;;;;;1546472;75;774;-64
2021/03/09 00:04:59;;;;;;;;;;;22.90;32.10;;;;;;1547049;75;770;-66
2021/03/09 00:07:01;;;;;;;;;;;22.90;32.10;;;;;;1541363;75;1933;-64
2021/03/09 00:09:03;;;;;;;;;;;22.90;32.10;;;;;;1544640;75;771;-64
2021/03/09 00:11:05;;;;;;;;;;;23.00;32.10;;;;;;1543041;75;735;-65
2021/03/09 00:13:07;;;;;;;;;;;23.00;32.00;;;;;;1540246;75;736;-64
2021/03/09 00:15:09;;;;;;;;;;;23.00;32.00;;;;;;1547165;75;724;-64
2021/03/09 00:17:11;;;;;;;;;;;23.00;32.00;;;;;;1546978;75;1097;-63
2021/03/09 00:19:13;;;;;;;;;;;23.00;32.00;;;;;;1543718;75;746;-66
2021/03/09 00:21:15;;;;;;;;;;;23.10;32.20;;;;;;1546882;75;821;-65
2021/03/09 00:23:16;;;;;;;;;;;23.00;32.50;;;;;;1546063;75;765;-64
2021/03/09 00:25:18;;;;;;;;;;;22.90;32.60;;;;;;1547054;75;785;-66
2021/03/09 00:27:20;;;;;;;;;;;22.90;32.70;;;;;;1546207;75;1952;-67
2021/03/09 00:29:22;;;;;;;;;;;22.90;32.70;;;;;;1547022;75;783;-62
2021/03/09 00:31:24;;;;;;;;;;;22.90;32.70;;;;;;1545826;75;786;-64
2021/03/09 00:33:26;;;;;;;;;;;22.90;32.70;;;;;;1546514;75;766;-64
2021/03/09 00:35:28;;;;;;;;;;;22.90;32.70;;;;;;1546431;75;798;-64
2021/03/09 00:37:29;;;;;;;;;;;22.80;32.60;;;;;;1546643;75;1157;-65
2021/03/09 00:39:31;;;;;;;;;;;22.80;32.60;;;;;;1547017;75;823;-65
2021/03/09 00:41:33;;;;;;;;;;;22.80;32.60;;;;;;1547273;75;788;-65
2021/03/09 00:43:35;;;;;;;;;;;22.90;32.70;;;;;;1546758;75;777;-64
2021/03/09 00:45:37;;;;;;;;;;;22.90;32.60;;;;;;1547020;75;736;-64
2021/03/09 00:47:39;;;;;;;;;;;22.90;32.60;;;;;;1546973;75;1953;-61
2021/03/09 00:49:41;;;;;;;;;;;22.90;32.50;;;;;;1545827;75;869;-64
2021/03/09 00:51:43;;;;;;;;;;;22.90;32.40;;;;;;1547192;75;767;-65
2021/03/09 00:53:44;;;;;;;;;;;23.00;32.40;;;;;;1542365;75;816;-65
2021/03/09 00:55:46;;;;;;;;;;;23.00;32.40;;;;;;1546816;75;698;-64
2021/03/09 00:57:56;;;;;;;;;;;23.00;32.40;;;;;;1546876;75;1138;-66
2021/03/09 00:59:58;;;;;;;;;;;23.20;32.50;;;;;;1542763;75;1963;-65
2021/03/09 01:02:00;;;;;;;;;;;23.00;32.40;;;;;;1545458;75;893;-64
2021/03/09 01:04:01;;;;;;;;;;;23.00;32.40;;;;;;1544155;75;764;-64
2021/03/09 01:06:03;;;;;;;;;;;22.90;32.50;;;;;;1545333;75;795;-65
2021/03/09 01:08:05;;;;;;;;;;;22.90;32.60;;;;;;1547090;75;1963;-62
2021/03/09 01:10:08;;;;;;;;;;;23.00;32.50;;;;;;1545274;75;887;-64
2021/03/09 01:12:10;;;;;;;;;;;23.00;32.60;;;;;;1547145;75;741;-64
2021/03/09 01:14:12;;;;;;;;;;;23.00;32.60;;;;;;1545836;75;721;-64
2021/03/09 01:16:14;;;;;;;;;;;22.90;32.60;;;;;;1546104;75;740;-64
2021/03/09 01:18:15;;;;;;;;;;;22.90;32.60;;;;;;1545598;75;1138;-65
2021/03/09 01:20:17;;;;;;;;;;;22.90;32.60;;;;;;1546396;75;770;-64
2021/03/09 01:22:19;;;;;;;;;;;22.90;32.50;;;;;;1546526;75;832;-64
2021/03/09 01:24:21;;;;;;;;;;;23.00;32.40;;;;;;1544669;75;780;-64
2021/03/09 01:26:23;;;;;;;;;;;22.90;32.40;;;;;;1546404;75;771;-64
2021/03/09 01:28:25;;;;;;;;;;;22.90;32.40;;;;;;1547188;75;1941;-63
2021/03/09 01:30:27;;;;;;;;;;;23.00;32.40;;;;;;1545685;75;665;-65
2021/03/09 01:32:28;;;;;;;;;;;23.00;32.30;;;;;;1543566;75;781;-65
2021/03/09 01:34:30;;;;;;;;;;;23.00;32.40;;;;;;1541423;75;716;-64
2021/03/09 01:36:32;;;;;;;;;;;23.00;32.30;;;;;;1543017;75;922;-65
2021/03/09 01:38:34;;;;;;;;;;;23.00;32.50;;;;;;1544028;75;1128;-64
2021/03/09 01:40:36;;;;;;;;;;;23.00;32.60;;;;;;1550387;75;817;-64
2021/03/09 01:42:38;;;;;;;;;;;22.90;32.50;;;;;;1546456;75;827;-64
2021/03/09 01:44:40;;;;;;;;;;;23.00;32.50;;;;;;1547695;75;755;-64
2021/03/09 01:46:42;;;;;;;;;;;23.00;32.40;;;;;;1541879;75;1135;-65
2021/03/09 01:48:45;;;;;;;;;;;23.00;32.40;;;;;;1544148;75;1922;-65
2021/03/09 01:50:47;;;;;;;;;;;23.00;32.40;;;;;;1546984;75;772;-64
2021/03/09 01:52:48;;;;;;;;;;;23.00;32.30;;;;;;1541564;75;744;-64
2021/03/09 01:54:50;;;;;;;;;;;23.00;32.30;;;;;;1531476;75;819;-64
2021/03/09 01:56:52;;;;;;;;;;;23.00;32.30;;;;;;1542336;75;1180;-65
2021/03/09 01:58:54;;;;;;;;;;;23.10;32.30;;;;;;1546921;75;644;-65
2021/03/09 02:00:56;;;;;;;;;;;23.00;32.20;;;;;;1543905;75;748;-66
2021/03/09 02:02:58;;;;;;;;;;;23.00;32.20;;;;;;1547009;75;787;-65
2021/03/09 02:05:01;;;;;;;;;;;23.00;32.30;;;;;;1543227;75;731;-65
2021/03/09 02:07:03;;;;;;;;;;;23.10;32.30;;;;;;1547198;75;1180;-66
2021/03/09 02:09:06;;;;;;;;;;;23.00;32.20;;;;;;1546289;75;1931;-66
2021/03/09 02:11:10;;;;;;;;;;;23.00;32.30;;;;;;1545617;75;1920;-65
2021/03/09 02:13:28;;;;;;;;;;;23.00;32.30;;;;;;1547116;75;1777;-65
2021/03/09 02:15:48;;;;;;;;;;;23.00;32.30;;;;;;1515641;77;1062;-64
2021/03/09 02:17:55;;;;;;;;;;;22.90;32.40;;;;;;1531762;75;1142;-64
2021/03/09 02:20:15;;;;;;;;;;;22.90;32.50;;;;;;1543355;75;731;-66
2021/03/09 02:22:20;;;;;;;;;;;22.90;32.60;;;;;;1542398;75;723;-65
2021/03/09 02:24:40;;;;;;;;;;;22.90;32.50;;;;;;1547077;75;1864;-63
2021/03/09 02:26:55;;;;;;;;;;;23.00;32.50;;;;;;1544304;75;1116;-64
2021/03/09 02:29:05;;;;;;;;;;;22.90;32.60;;;;;;1536930;75;1957;-65
2021/03/09 02:31:07;;;;;;;;;;;22.90;32.70;;;;;;1545129;75;772;-65
2021/03/09 02:33:16;;;;;;;;;;;22.90;32.70;;;;;;1547120;75;775;-65
2021/03/09 02:35:19;;;;;;;;;;;22.90;32.70;;;;;;1546275;75;790;-65
2021/03/09 02:37:21;;;;;;;;;;;22.90;32.70;;;;;;1546876;75;1062;-65
2021/03/09 02:39:23;;;;;;;;;;;22.80;32.60;;;;;;1545255;75;774;-65
2021/03/09 02:41:25;;;;;;;;;;;22.80;32.60;;;;;;1542961;75;743;-65
2021/03/09 02:43:27;;;;;;;;;;;22.90;32.70;;;;;;1545493;75;769;-67
2021/03/09 02:45:29;;;;;;;;;;;22.80;32.60;;;;;;1547255;75;876;-68
2021/03/09 02:47:31;;;;;;;;;;;22.80;32.60;;;;;;1547300;75;1152;-65
2021/03/09 02:49:33;;;;;;;;;;;22.90;32.70;;;;;;1544966;75;2004;-66
2021/03/09 02:51:35;;;;;;;;;;;22.90;32.70;;;;;;1545397;75;765;-64
2021/03/09 02:53:37;;;;;;;;;;;22.90;32.70;;;;;;1513378;77;1355;-66
2021/03/09 02:55:39;;;;;;;;;;;22.90;32.80;;;;;;1531304;75;744;-64
2021/03/09 02:57:41;;;;;;;;;;;22.90;33.00;;;;;;1528563;75;1176;-65
2021/03/09 02:59:43;;;;;;;;;;;22.80;32.80;;;;;;1541320;75;707;-65
2021/03/09 03:01:47;;;;;;;;;;;22.90;32.90;;;;;;1538845;75;781;-65
2021/03/09 03:03:49;;;;;;;;;;;23.00;32.70;;;;;;1535249;75;1248;-64
2021/03/09 03:05:50;;;;;;;;;;;23.00;32.70;;;;;;1531940;75;787;-65
2021/03/09 03:07:52;;;;;;;;;;;23.10;32.70;;;;;;1541486;75;1955;-66
2021/03/09 03:09:54;;;;;;;;;;;23.10;32.70;;;;;;1541970;75;767;-66
2021/03/09 03:11:56;;;;;;;;;;;23.20;32.60;;;;;;1545028;75;798;-64
2021/03/09 03:13:58;;;;;;;;;;;23.10;32.60;;;;;;1538615;75;891;-64
2021/03/09 03:16:00;;;;;;;;;;;23.10;32.70;;;;;;1540611;75;718;-64
2021/03/09 03:18:02;;;;;;;;;;;23.10;32.60;;;;;;1542983;75;1132;-65
2021/03/09 03:20:04;;;;;;;;;;;23.10;32.60;;;;;;1533527;75;792;-64
2021/03/09 03:22:06;;;;;;;;;;;23.10;32.60;;;;;;1532027;75;772;-65
2021/03/09 03:24:09;;;;;;;;;;;23.20;32.60;;;;;;1532169;75;717;-65
2021/03/09 03:26:13;;;;;;;;;;;23.10;32.70;;;;;;1540414;75;668;-64
2021/03/09 03:28:15;;;;;;;;;;;23.10;32.80;;;;;;1542938;75;1955;-64
2021/03/09 03:30:17;;;;;;;;;;;23.00;32.90;;;;;;1541777;75;705;-64
2021/03/09 03:32:19;;;;;;;;;;;23.00;33.20;;;;;;1546103;75;754;-64
2021/03/09 03:34:21;;;;;;;;;;;22.90;33.40;;;;;;1547283;75;690;-64
2021/03/09 03:36:23;;;;;;;;;;;22.90;33.40;;;;;;1541483;75;744;-63
2021/03/09 03:38:24;;;;;;;;;;;22.80;33.50;;;;;;1546538;75;1103;-65
2021/03/09 03:40:26;;;;;;;;;;;22.80;33.60;;;;;;1539753;75;736;-65
2021/03/09 03:42:28;;;;;;;;;;;22.80;33.70;;;;;;1547458;75;775;-66
2021/03/09 03:44:30;;;;;;;;;;;22.90;33.90;;;;;;1547547;75;753;-64
2021/03/09 03:46:32;;;;;;;;;;;22.90;34.00;;;;;;1544489;75;817;-65
2021/03/09 03:48:34;;;;;;;;;;;22.80;34.00;;;;;;1547515;75;1944;-64
2021/03/09 03:50:36;;;;;;;;;;;22.90;34.20;;;;;;1537205;75;725;-62
2021/03/09 03:52:56;;;;;;;;;;;22.80;34.10;;;;;;1519866;75;780;-65
2021/03/09 03:55:03;;;;;;;;;;;22.80;34.20;;;;;;1530682;75;747;-65
2021/03/09 03:57:09;;;;;;;;;;;22.90;34.30;;;;;;1544799;75;1188;-65
2021/03/09 03:59:14;;;;;;;;;;;22.90;34.30;;;;;;1537095;75;751;-65
2021/03/09 04:01:17;;;;;;;;;;;22.80;34.20;;;;;;1535541;75;744;-64
2021/03/09 04:03:19;;;;;;;;;;;22.80;34.20;;;;;;1509243;77;850;-65
2021/03/09 04:05:21;;;;;;;;;;;22.90;34.30;;;;;;1537901;75;814;-64
2021/03/09 04:07:24;;;;;;;;;;;22.80;34.20;;;;;;1538385;75;1139;-64
2021/03/09 04:09:25;;;;;;;;;;;22.90;34.40;;;;;;1543884;75;1939;-65
2021/03/09 04:11:27;;;;;;;;;;;22.90;34.40;;;;;;1534259;75;758;-65
2021/03/09 04:13:29;;;;;;;;;;;22.90;34.40;;;;;;1547342;75;723;-65
2021/03/09 04:15:31;;;;;;;;;;;22.90;34.40;;;;;;1543458;75;792;-65
2021/03/09 04:17:33;;;;;;;;;;;22.90;34.20;;;;;;1542823;75;1118;-65
2021/03/09 04:19:35;;;;;;;;;;;22.90;34.20;;;;;;1545519;75;835;-65
2021/03/09 04:21:37;;;;;;;;;;;22.90;34.20;;;;;;1547528;75;745;-67
2021/03/09 04:23:38;;;;;;;;;;;22.90;34.20;;;;;;1538639;75;711;-65
2021/03/09 04:25:41;;;;;;;;;;;23.00;34.30;;;;;;1545032;75;706;-65
2021/03/09 04:27:43;;;;;;;;;;;23.00;34.20;;;;;;1544527;75;1158;-66
2021/03/09 04:29:45;;;;;;;;;;;23.00;34.30;;;;;;1538526;75;1948;-65
2021/03/09 04:31:47;;;;;;;;;;;23.00;34.30;;;;;;1537647;75;792;-65
2021/03/09 04:33:49;;;;;;;;;;;22.90;34.30;;;;;;1535429;75;723;-65
2021/03/09 04:35:50;;;;;;;;;;;23.00;34.30;;;;;;1540065;75;716;-65
2021/03/09 04:37:52;;;;;;;;;;;23.00;34.30;;;;;;1541455;75;1140;-65
2021/03/09 04:39:54;;;;;;;;;;;23.00;34.30;;;;;;1539328;75;806;-65
2021/03/09 04:41:56;;;;;;;;;;;23.00;34.60;;;;;;1542166;75;683;-65
2021/03/09 04:44:00;;;;;;;;;;;23.00;34.40;;;;;;1547248;75;739;-66
2021/03/09 04:46:01;;;;;;;;;;;23.00;34.30;;;;;;1546484;75;1499;-64
2021/03/09 04:48:04;;;;;;;;;;;23.00;34.20;;;;;;1541311;75;1150;-66
2021/03/09 04:50:06;;;;;;;;;;;23.00;34.20;;;;;;1547525;77;1939;-64
2021/03/09 04:52:08;;;;;;;;;;;23.00;34.10;;;;;;1539878;75;759;-64
2021/03/09 04:54:10;;;;;;;;;;;23.00;34.00;;;;;;1512930;77;1174;-64
2021/03/09 04:56:11;;;;;;;;;;;23.00;34.00;;;;;;1534610;75;889;-64
2021/03/09 04:58:13;;;;;;;;;;;23.00;33.90;;;;;;1550201;75;1195;-65
2021/03/09 05:00:19;;;;;;;;;;;23.00;33.90;;;;;;1543454;75;786;-65
2021/03/09 05:02:21;;;;;;;;;;;23.00;33.90;;;;;;1529172;75;732;-67
2021/03/09 05:04:23;;;;;;;;;;;23.00;33.80;;;;;;1539716;75;732;-65
2021/03/09 05:06:25;;;;;;;;;;;23.00;33.80;;;;;;1543057;75;789;-64
2021/03/09 05:08:27;;;;;;;;;;;23.10;33.90;;;;;;1536347;75;1168;-64
2021/03/09 05:10:29;;;;;;;;;;;23.10;33.80;;;;;;1543972;75;1938;-65
2021/03/09 05:12:31;;;;;;;;;;;23.10;33.80;;;;;;1541211;75;828;-64
2021/03/09 05:14:33;;;;;;;;;;;23.00;33.60;;;;;;1531568;75;797;-63
2021/03/09 05:16:34;;;;;;;;;;;23.10;33.80;;;;;;1534925;75;566;-64
2021/03/09 05:18:36;;;;;;;;;;;23.10;33.80;;;;;;1532927;75;1125;-63
2021/03/09 05:20:38;;;;;;;;;;;23.10;33.70;;;;;;1541139;75;883;-65
2021/03/09 05:22:40;;;;;;;;;;;23.30;33.90;;;;;;1534392;75;745;-65
2021/03/09 05:24:42;;;;;;;;;;;23.10;33.70;;;;;;1545304;75;792;-62
2021/03/09 05:26:44;;;;;;;;;;;23.10;33.90;;;;;;1537952;75;1150;-65
2021/03/09 05:28:47;;;;;;;;;;;23.10;33.90;;;;;;1539111;75;1955;-65
2021/03/09 05:30:49;;;;;;;;;;;23.10;33.90;;;;;;1540409;75;704;-65
2021/03/09 05:32:51;;;;;;;;;;;23.10;34.00;;;;;;1539876;75;661;-66
2021/03/09 05:34:53;;;;;;;;;;;23.10;34.00;;;;;;1532556;75;805;-66
2021/03/09 05:36:55;;;;;;;;;;;23.10;34.00;;;;;;1536384;75;1136;-65
2021/03/09 05:38:57;;;;;;;;;;;23.20;33.90;;;;;;1544536;75;751;-66
2021/03/09 05:40:59;;;;;;;;;;;23.20;33.90;;;;;;1547438;75;922;-66
2021/03/09 05:43:01;;;;;;;;;;;23.20;33.90;;;;;;1528633;75;734;-62
2021/03/09 05:45:03;;;;;;;;;;;23.20;33.90;;;;;;1547428;75;686;-65
2021/03/09 05:47:05;;;;;;;;;;;23.10;34.00;;;;;;1537679;75;1136;-65
2021/03/09 05:49:08;;;;;;;;;;;23.20;33.90;;;;;;1547352;75;1949;-64
2021/03/09 05:51:10;;;;;;;;;;;23.20;33.90;;;;;;1536791;76;749;-64
2021/03/09 05:53:12;;;;;;;;;;;23.20;33.70;;;;;;1536598;75;764;-65
2021/03/09 05:55:14;;;;;;;;;;;23.20;33.70;;;;;;1534704;75;781;-65
2021/03/09 05:57:16;;;;;;;;;;;23.20;33.70;;;;;;1534570;75;1174;-64
2021/03/09 05:59:17;;;;;;;;;;;23.20;33.60;;;;;;1545929;75;907;-64
2021/03/09 06:01:20;;;;;;;;;;;23.20;33.60;;;;;;1535664;75;750;-64
2021/03/09 06:03:21;;;;;;;;;;;23.30;33.60;;;;;;1544163;75;672;-67
2021/03/09 06:05:23;;;;;;;;;;;23.30;33.70;;;;;;1546918;75;931;-64
2021/03/09 06:07:25;;;;;;;;;;;23.30;33.60;;;;;;1538445;75;1143;-66
2021/03/09 06:09:35;;;;;;;;;;;23.30;33.60;;;;;;1542708;75;1939;-64
2021/03/09 06:11:37;;;;;;;;;;;23.30;33.60;;;;;;1545645;75;780;-64
2021/03/09 06:13:39;;;;;;;;;;;23.30;33.60;;;;;;1540404;75;749;-61
2021/03/09 06:15:53;;;;;;;;;;;23.30;33.70;;;;;;1543320;75;738;-64
2021/03/09 06:17:56;;;;;;;;;;;23.30;33.80;;;;;;1540113;75;1179;-65
2021/03/09 06:19:58;;;;;;;;;;;23.30;33.70;;;;;;1547435;75;710;-64
2021/03/09 06:21:59;;;;;;;;;;;23.30;33.70;;;;;;1544762;75;789;-64
2021/03/09 06:24:03;;;;;;;;;;;23.40;33.90;;;;;;1544481;75;729;-65
2021/03/09 06:26:06;;;;;;;;;;;23.40;33.40;;;;;;1539222;75;1893;-67
2021/03/09 06:28:10;;;;;;;;;;;23.30;33.00;;;;;;1541208;75;1734;-70
2021/03/09 06:30:13;;;;;;;;;;;23.30;32.80;;;;;;1545707;75;1959;-67
2021/03/09 06:32:15;;;;;;;;;;;23.30;32.40;;;;;;1546791;75;700;-68
2021/03/09 06:34:20;;;;;;;;;;;23.30;32.20;;;;;;1546026;75;681;-69
2021/03/09 06:36:22;;;;;;;;;;;23.30;32.30;;;;;;1544859;75;743;-65
2021/03/09 06:38:28;;;;;;;;;;;23.30;32.30;;;;;;1515421;77;1127;-67
2021/03/09 06:40:30;;;;;;;;;;;23.30;32.40;;;;;;1544361;75;771;-70
2021/03/09 06:42:34;;;;;;;;;;;23.30;32.50;;;;;;1545506;75;832;-68
2021/03/09 06:44:37;;;;;;;;;;;23.30;32.20;;;;;;1545437;75;700;-68
2021/03/09 06:46:47;;;;;;;;;;;23.40;32.40;;;;;;1545453;75;1110;-68
2021/03/09 06:48:50;;;;;;;;;;;23.40;32.50;;;;;;1539859;75;711;-66
2021/03/09 06:50:52;;;;;;;;;;;23.40;32.50;;;;;;1523870;75;1945;-68
2021/03/09 06:53:01;;;;;;;;;;;23.40;32.60;;;;;;1545974;75;823;-67
2021/03/09 06:55:03;;;;;;;;;;;23.40;32.50;;;;;;1547126;75;947;-66
2021/03/09 06:57:06;;;;;;;;;;;23.40;32.40;;;;;;1543775;75;1219;-67
2021/03/09 06:59:21;;;;;;;;;;;23.40;32.50;;;;;;1538564;75;1913;-69
2021/03/09 07:01:23;;;;;;;;;;;23.40;32.40;;;;;;1542521;75;820;-67
2021/03/09 07:03:37;;;;;;;;;;;23.40;32.30;;;;;;1542901;75;744;-73
2021/03/09 07:05:41;;;;;;;;;;;23.40;32.30;;;;;;1537059;75;696;-68
2021/03/09 07:07:42;;;;;;;;;;;23.40;32.10;;;;;;1543482;75;1821;-67
2021/03/09 07:09:54;;;;;;;;;;;23.50;32.00;;;;;;1547180;75;1923;-71
2021/03/09 07:11:57;;;;;;;;;;;23.50;32.00;;;;;;1540885;75;856;-67
2021/03/09 07:13:59;;;;;;;;;;;23.50;31.90;;;;;;1538965;75;847;-69
2021/03/09 07:16:00;;;;;;;;;;;23.50;31.80;;;;;;1538976;75;785;-70
2021/03/09 07:18:02;;;;;;;;;;;23.40;31.50;;;;;;1511485;77;1162;-69
2021/03/09 07:20:05;;;;;;;;;;;23.50;31.50;;;;;;1540913;75;797;-69
2021/03/09 07:22:07;;;;;;;;;;;23.50;31.50;;;;;;1539678;75;710;-69
2021/03/09 07:24:08;;;;;;;;;;;23.40;31.20;;;;;;1543895;75;658;-68
2021/03/09 07:26:10;;;;;;;;;;;23.40;31.20;;;;;;1548808;75;726;-69
2021/03/09 07:28:13;;;;;;;;;;;23.40;31.30;;;;;;1542106;75;1127;-75
2021/03/09 07:30:15;;;;;;;;;;;23.40;31.20;;;;;;1545466;77;1935;-68
2021/03/09 07:32:21;;;;;;;;;;;23.40;31.20;;;;;;1547189;77;727;-69
2021/03/09 07:34:24;;;;;;;;;;;23.40;31.10;;;;;;1537545;75;782;-69
2021/03/09 07:36:26;;;;;;;;;;;23.40;31.10;;;;;;1546507;75;791;-70
2021/03/09 07:38:27;;;;;;;;;;;23.40;30.90;;;;;;1536488;75;1097;-70
2021/03/09 07:40:30;;;;;;;;;;;23.30;31.00;;;;;;1545712;75;723;-70
2021/03/09 07:42:32;;;;;;;;;;;23.30;30.90;;;;;;1544212;75;843;-71
2021/03/09 07:44:35;;;;;;;;;;;23.30;30.90;;;;;;1547437;76;719;-72
2021/03/09 07:46:37;;;;;;;;;;;23.40;30.70;;;;;;1546611;75;701;-69
2021/03/09 07:48:39;;;;;;;;;;;23.30;30.80;;;;;;1543767;75;780;-70
2021/03/09 07:50:41;;;;;;;;;;;23.20;30.70;;;;;;1543288;75;1927;-66
2021/03/09 07:53:00;;;;;;;;;;;23.40;30.70;;;;;;1546848;77;734;-70
2021/03/09 07:55:04;;;;;;;;;;;23.40;30.00;;;;;;1542065;75;834;-66
2021/03/09 07:57:19;;;;;;;;;;;23.40;29.50;;;;;;1545216;75;1133;-67
2021/03/09 07:59:21;;;;;;;;;;;23.40;28.20;;;;;;1544205;75;729;-71
2021/03/09 08:01:23;;;;;;;;;;;23.40;28.20;;;;;;1545688;75;779;-67
2021/03/09 08:03:26;;;;;;;;;;;23.30;27.60;;;;;;1513411;77;1183;-63
2021/03/09 08:05:28;;;;;;;;;;;23.40;27.20;;;;;;1546596;75;763;-66
2021/03/09 08:07:50;;;;;;;;;;;23.40;26.90;;;;;;1545462;75;1149;-65
2021/03/09 08:09:51;;;;;;;;;;;23.30;26.40;;;;;;1545997;77;1914;-66
2021/03/09 08:11:53;;;;;;;;;;;23.30;26.50;;;;;;1546452;75;933;-64
2021/03/09 08:14:06;;;;;;;;;;;23.40;26.20;;;;;;1547279;76;680;-66
2021/03/09 08:16:23;;;;;;;;;;;23.30;26.10;;;;;;1542961;75;719;-66
2021/03/09 08:18:30;;;;;;;;;;;23.40;25.90;;;;;;1544563;75;1165;-66
2021/03/09 08:20:55;;;;;;;;;;;23.40;25.50;;;;;;1542849;75;788;-65
2021/03/09 08:22:54;;;;;;;;;;;23.40;25.30;;;;;;1538937;75;1291;-66
2021/03/09 08:24:56;;;;;;;;;;;23.40;25.00;;;;;;1546793;75;827;-67
2021/03/09 08:26:58;;;;;;;;;;;23.40;25.20;;;;;;1544136;75;1096;-67
2021/03/09 08:28:59;;;;;;;;;;;23.40;25.00;;;;;;1539643;75;797;-65
2021/03/09 08:31:15;;;;;;;;;;;23.40;24.80;;;;;;1547257;76;1914;-64
2021/03/09 08:33:24;;;;;;;;;;;23.40;25.10;;;;;;1542578;75;730;-66
2021/03/09 08:35:30;;;;;;;;;;;23.40;24.70;;;;;;1532186;75;766;-66
2021/03/09 08:37:32;;;;;;;;;;;23.30;25.00;;;;;;1546927;75;1219;-66
2021/03/09 08:39:34;;;;;;;;;;;23.30;24.70;;;;;;1541967;75;784;-66
2021/03/09 08:41:37;;;;;;;;;;;23.30;24.80;;;;;;1514948;77;788;-63
2021/03/09 08:43:40;;;;;;;;;;;23.40;24.60;;;;;;1546532;75;805;-65
2021/03/09 08:45:44;;;;;;;;;;;23.30;24.60;;;;;;1545761;75;809;-65
2021/03/09 08:47:52;;;;;;;;;;;23.30;24.30;;;;;;1542610;75;1892;-64
2021/03/09 08:49:54;;;;;;;;;;;23.40;24.50;;;;;;1542948;75;1923;-63
2021/03/09 08:51:56;;;;;;;;;;;23.30;24.10;;;;;;1546757;75;804;-65
2021/03/09 08:53:58;;;;;;;;;;;23.30;24.30;;;;;;1545938;76;673;-66
2021/03/09 08:56:00;;;;;;;;;;;23.40;24.30;;;;;;1547133;75;746;-68
2021/03/09 08:58:06;;;;;;;;;;;23.30;24.20;;;;;;1539502;75;1167;-66
2021/03/09 09:00:11;;;;;;;;;;;23.30;24.20;;;;;;1544504;75;787;-66
2021/03/09 09:02:14;;;;;;;;;;;23.20;24.20;;;;;;1545034;76;856;-64
2021/03/09 09:04:16;;;;;;;;;;;23.10;24.20;;;;;;1544893;75;799;-66
2021/03/09 09:06:18;;;;;;;;;;;23.10;24.20;;;;;;1547091;75;802;-66
2021/03/09 09:08:20;;;;;;;;;;;23.20;24.20;;;;;;1515670;77;1145;-66
2021/03/09 09:10:28;;;;;;;;;;;23.10;24.10;;;;;;1542189;75;1931;-65
2021/03/09 09:12:31;;;;;;;;;;;23.10;23.60;;;;;;1543802;75;801;-65
2021/03/09 09:14:33;;;;;;;;;;;23.10;24.00;;;;;;1533048;75;768;-65
2021/03/09 09:16:35;;;;;;;;;;;23.10;23.80;;;;;;1541192;75;855;-68
2021/03/09 09:18:37;;;;;;;;;;;23.00;23.90;;;;;;1547177;75;1141;-66
2021/03/09 09:20:40;;;;;;;;;;;23.00;23.90;;;;;;1546136;75;798;-66
2021/03/09 09:22:42;;;;;;;;;;;23.00;23.80;;;;;;1539857;75;822;-66
2021/03/09 09:24:44;;;;;;;;;;;23.00;23.90;;;;;;1541434;77;773;-67
2021/03/09 09:26:46;;;;;;;;;;;23.00;23.50;;;;;;1536070;75;1151;-65
2021/03/09 09:28:47;;;;;;;;;;;23.00;23.70;;;;;;1531196;75;772;-62
2021/03/09 09:30:49;;;;;;;;;;;23.00;23.80;;;;;;1538552;75;1925;-64
2021/03/09 09:32:52;;;;;;;;;;;23.00;23.70;;;;;;1547050;75;772;-67
2021/03/09 09:34:57;;;;;;;;;;;23.00;23.70;;;;;;1546922;75;667;-66
2021/03/09 09:36:59;;;;;;;;;;;23.00;23.30;;;;;;1545299;75;1090;-66
2021/03/09 09:39:01;;;;;;;;;;;23.00;23.60;;;;;;1545540;75;752;-66
2021/03/09 09:41:03;;;;;;;;;;;22.90;23.70;;;;;;1546868;75;746;-68
2021/03/09 09:43:06;;;;;;;;;;;22.90;23.70;;;;;;1534019;75;801;-68
2021/03/09 09:45:08;;;;;;;;;;;22.90;23.70;;;;;;1541175;75;716;-67
2021/03/09 09:47:10;;;;;;;;;;;22.90;23.50;;;;;;1547172;75;1155;-66
2021/03/09 09:49:12;;;;;;;;;;;22.90;23.60;;;;;;1545547;75;724;-65
2021/03/09 09:51:15;;;;;;;;;;;22.80;23.40;;;;;;1547229;75;1937;-63
2021/03/09 09:53:36;;;;;;;;;;;22.90;23.50;;;;;;1546593;75;715;-63
2021/03/09 09:55:38;;;;;;;;;;;22.80;23.40;;;;;;1547179;75;791;-64
2021/03/09 09:57:41;;;;;;;;;;;22.80;23.20;;;;;;1546441;75;1169;-67
2021/03/09 09:59:43;;;;;;;;;;;22.80;23.30;;;;;;1545157;75;1898;-64
2021/03/09 10:01:45;;;;;;;;;;;22.80;23.00;;;;;;1545007;75;720;-65
2021/03/09 10:03:51;;;;;;;;;;;22.70;23.00;;;;;;1547075;75;833;-68
2021/03/09 10:05:53;;;;;;;;;;;22.80;23.00;;;;;;1546873;75;737;-65
2021/03/09 10:07:55;;;;;;;;;;;22.70;23.50;;;;;;1541912;75;1191;-66
2021/03/09 10:10:04;;;;;;;;;;;22.70;23.10;;;;;;1546697;75;797;-65
2021/03/09 10:12:06;;;;;;;;;;;22.60;23.00;;;;;;1538917;75;1943;-63
2021/03/09 10:14:08;;;;;;;;;;;22.60;22.70;;;;;;1541719;75;970;-64
2021/03/09 10:16:10;;;;;;;;;;;22.60;22.90;;;;;;1543585;75;742;-64
2021/03/09 10:18:15;;;;;;;;;;;22.50;23.10;;;;;;1544272;75;1259;-60
2021/03/09 10:20:22;;;;;;;;;;;22.50;22.80;;;;;;1543942;75;1538;-64
2021/03/09 10:22:25;;;;;;;;;;;22.50;23.00;;;;;;1546587;75;876;-64
2021/03/09 10:24:30;;;;;;;;;;;22.40;22.80;;;;;;1543861;75;799;-65
2021/03/09 10:26:33;;;;;;;;;;;22.40;22.80;;;;;;1545865;75;2001;-64
2021/03/09 10:28:35;;;;;;;;;;;22.30;22.90;;;;;;1544846;75;1124;-65
2021/03/09 10:30:40;;;;;;;;;;;22.30;22.80;;;;;;1546974;75;1923;-65
2021/03/09 10:32:48;;;;;;;;;;;22.30;23.20;;;;;;1545943;75;716;-66
2021/03/09 10:34:58;;;;;;;;;;;22.30;23.80;;;;;;1546803;75;809;-64
2021/03/09 10:37:02;;;;;;;;;;;22.30;23.60;;;;;;1545518;75;1295;-65
2021/03/09 10:39:03;;;;;;;;;;;22.40;23.70;;;;;;1546475;75;1579;-65
2021/03/09 10:41:04;;;;;;;;;;;22.30;23.20;;;;;;1543721;75;2043;-65
2021/03/09 10:43:06;;;;;;;;;;;22.30;23.40;;;;;;1545978;75;753;-68
2021/03/09 10:45:19;;;;;;;;;;;22.30;23.30;;;;;;1544143;75;797;-64
2021/03/09 10:47:20;;;;;;;;;;;22.20;23.20;;;;;;1545495;75;1087;-66
2021/03/09 10:49:22;;;;;;;;;;;22.20;23.10;;;;;;1546356;75;736;-62
2021/03/09 10:51:24;;;;;;;;;;;22.20;23.00;;;;;;1547282;77;1955;-65
2021/03/09 10:53:26;;;;;;;;;;;22.10;23.00;;;;;;1546557;75;880;-64
2021/03/09 10:55:28;;;;;;;;;;;22.10;22.80;;;;;;1543245;75;727;-64
2021/03/09 10:57:30;;;;;;;;;;;22.10;22.80;;;;;;1544193;77;1158;-67
2021/03/09 10:59:32;;;;;;;;;;;22.00;22.80;;;;;;1545645;75;758;-66
2021/03/09 11:01:34;;;;;;;;;;;22.10;22.80;;;;;;1545432;75;817;-69
2021/03/09 11:03:36;;;;;;;;;;;22.00;24.10;;;;;;1546672;75;778;-67
2021/03/09 11:05:37;;;;;;;;;;;22.00;26.20;;;;;;1543387;75;825;-65
2021/03/09 11:07:39;;;;;;;;;;;22.20;26.50;;;;;;1546581;75;1157;-68
2021/03/09 11:09:42;;;;;;;;;;;22.30;28.10;;;;;;1545821;75;759;-69
2021/03/09 11:11:45;;;;;;;;;;;22.40;29.10;;;;;;1545429;75;1912;-71
2021/03/09 11:13:47;;;;;;;;;;;22.40;29.00;;;;;;1544135;75;764;-69
2021/03/09 11:15:48;;;;;;;;;;;22.40;29.20;;;;;;1547048;75;744;-71
2021/03/09 11:17:50;;;;;;;;;;;22.40;29.30;;;;;;1544605;75;1140;-68
2021/03/09 11:19:52;;;;;;;;;;;22.40;29.40;;;;;;1546543;75;812;-70
2021/03/09 11:21:54;;;;;;;;;;;22.40;29.60;;;;;;1543907;75;1040;-69
2021/03/09 11:23:56;;;;;;;;;;;22.40;29.70;;;;;;1544519;75;759;-71
2021/03/09 11:25:58;;;;;;;;;;;22.50;29.80;;;;;;1543498;75;698;-70
2021/03/09 11:28:00;;;;;;;;;;;22.50;30.00;;;;;;1546872;75;1145;-71
2021/03/09 11:30:01;;;;;;;;;;;22.50;30.10;;;;;;1534308;75;741;-70
2021/03/09 11:32:05;;;;;;;;;;;22.50;30.10;;;;;;1547138;75;1947;-70
2021/03/09 11:34:06;;;;;;;;;;;22.60;30.10;;;;;;1543195;75;741;-69
2021/03/09 11:36:09;;;;;;;;;;;22.50;30.20;;;;;;1543713;77;741;-68
2021/03/09 11:38:11;;;;;;;;;;;22.60;30.20;;;;;;1546835;75;1136;-68
2021/03/09 11:40:13;;;;;;;;;;;22.60;30.30;;;;;;1545181;75;752;-65
2021/03/09 11:42:15;;;;;;;;;;;22.60;30.40;;;;;;1547266;75;731;-68
2021/03/09 11:44:17;;;;;;;;;;;22.60;30.40;;;;;;1546766;75;722;-68
2021/03/09 11:46:19;;;;;;;;;;;22.60;30.30;;;;;;1546897;75;779;-68
2021/03/09 11:48:21;;;;;;;;;;;22.70;30.30;;;;;;1544649;75;1134;-71
2021/03/09 11:50:23;;;;;;;;;;;22.70;30.30;;;;;;1546421;75;810;-70
2021/03/09 11:52:25;;;;;;;;;;;22.70;30.40;;;;;;1546526;75;1933;-70
2021/03/09 11:54:27;;;;;;;;;;;22.80;30.30;;;;;;1546432;75;792;-68
2021/03/09 11:56:28;;;;;;;;;;;22.80;30.20;;;;;;1546474;75;771;-68
2021/03/09 11:58:31;;;;;;;;;;;22.80;30.20;;;;;;1544823;75;1066;-68
2021/03/09 12:00:33;;;;;;;;;;;22.90;30.40;;;;;;1546586;75;777;-67
2021/03/09 12:02:35;;;;;;;;;;;22.80;30.30;;;;;;1542906;75;763;-68
2021/03/09 12:04:36;;;;;;;;;;;22.80;30.20;;;;;;1545910;75;855;-72
2021/03/09 12:06:38;;;;;;;;;;;22.80;30.20;;;;;;1547103;75;773;-68
2021/03/09 12:08:40;;;;;;;;;;;22.70;30.20;;;;;;1547111;75;905;-70
2021/03/09 12:10:42;;;;;;;;;;;22.90;30.30;;;;;;1540870;75;738;-69
2021/03/09 12:12:44;;;;;;;;;;;22.90;30.30;;;;;;1546551;75;1898;-71
2021/03/09 12:14:46;;;;;;;;;;;22.80;30.10;;;;;;1547159;75;756;-68